Bay State Village, Massachusetts
Current Conditions -  °F | °C
As of 11:19 AM on Monday 24 Nov 2014 (Local Time) from KCEF Reporting Station
Drizzle Drizzle  
Wind Chill: 63°   Ceiling: 1200
Heat Index: 63°   Visibility: 7mi
Dew Point: 61°   Wind: 16mph
Humidity: 94%   Direction: 190°S
Pressure: 29.64"   Gusts: 23mph
Location:  42.3249°N, 72.6582°W
Report Text: KCEF 241619Z 19014G20KT 7SM -DZ SCT009 BKN012 BKN019 OVC024 17/16 A2964 RMK AO2A
Loading
Personal Weather Stations






























Interactive Weather Map New forecast layout! Learn more

10-Day Weather Forecast

Advertisements
Track Severe Weather on mobile